sensor_id;sensor_type;location;lat;lon;timestamp;P1;durP1;ratioP1;P2;durP2;ratioP2
40731;SDS011;26420;52.256;9.096;2022-10-16T00:00:24;1.95;;;0.80;;
40731;SDS011;26420;52.256;9.096;2022-10-16T00:05:26;2.85;;;1.02;;
40731;SDS011;26420;52.256;9.096;2022-10-16T00:10:28;0.90;;;0.80;;
40731;SDS011;26420;52.256;9.096;2022-10-16T00:15:30;2.05;;;0.98;;
40731;SDS011;26420;52.256;9.096;2022-10-16T00:20:34;2.08;;;1.20;;
40731;SDS011;26420;52.256;9.096;2022-10-16T00:25:38;2.95;;;1.27;;
40731;SDS011;26420;52.256;9.096;2022-10-16T00:30:39;3.15;;;1.40;;
40731;SDS011;26420;52.256;9.096;2022-10-16T00:35:41;1.98;;;1.55;;
40731;SDS011;26420;52.256;9.096;2022-10-16T00:40:43;6.15;;;1.60;;
40731;SDS011;26420;52.256;9.096;2022-10-16T00:45:44;2.65;;;1.67;;
40731;SDS011;26420;52.256;9.096;2022-10-16T00:50:46;1.83;;;1.50;;
40731;SDS011;26420;52.256;9.096;2022-10-16T00:55:48;4.20;;;1.75;;
40731;SDS011;26420;52.256;9.096;2022-10-16T01:00:49;4.00;;;1.67;;
40731;SDS011;26420;52.256;9.096;2022-10-16T01:05:55;3.95;;;1.63;;
40731;SDS011;26420;52.256;9.096;2022-10-16T01:11:22;2.88;;;1.50;;
40731;SDS011;26420;52.256;9.096;2022-10-16T01:16:49;3.55;;;1.55;;
40731;SDS011;26420;52.256;9.096;2022-10-16T01:22:13;4.38;;;1.73;;
40731;SDS011;26420;52.256;9.096;2022-10-16T01:27:18;2.97;;;1.25;;
40731;SDS011;26420;52.256;9.096;2022-10-16T01:37:34;2.30;;;1.30;;
40731;SDS011;26420;52.256;9.096;2022-10-16T01:42:46;2.65;;;1.17;;
40731;SDS011;26420;52.256;9.096;2022-10-16T01:47:50;6.60;;;1.50;;
40731;SDS011;26420;52.256;9.096;2022-10-16T01:52:53;2.17;;;1.42;;
40731;SDS011;26420;52.256;9.096;2022-10-16T01:57:58;5.13;;;1.60;;
40731;SDS011;26420;52.256;9.096;2022-10-16T02:03:02;4.25;;;1.20;;
40731;SDS011;26420;52.256;9.096;2022-10-16T02:08:05;3.83;;;1.95;;
40731;SDS011;26420;52.256;9.096;2022-10-16T02:13:09;2.15;;;1.52;;
40731;SDS011;26420;52.256;9.096;2022-10-16T02:18:14;4.07;;;1.55;;
40731;SDS011;26420;52.256;9.096;2022-10-16T02:23:19;4.22;;;1.67;;
40731;SDS011;26420;52.256;9.096;2022-10-16T02:28:27;3.47;;;1.52;;
40731;SDS011;26420;52.256;9.096;2022-10-16T02:33:32;3.47;;;1.70;;
40731;SDS011;26420;52.256;9.096;2022-10-16T02:38:39;4.65;;;1.90;;
40731;SDS011;26420;52.256;9.096;2022-10-16T02:43:42;6.43;;;2.00;;
40731;SDS011;26420;52.256;9.096;2022-10-16T02:48:45;4.70;;;2.22;;
40731;SDS011;26420;52.256;9.096;2022-10-16T02:53:48;5.05;;;2.10;;
40731;SDS011;26420;52.256;9.096;2022-10-16T02:58:51;6.78;;;2.20;;
40731;SDS011;26420;52.256;9.096;2022-10-16T03:03:54;6.65;;;2.47;;
40731;SDS011;26420;52.256;9.096;2022-10-16T03:08:59;5.32;;;2.03;;
40731;SDS011;26420;52.256;9.096;2022-10-16T03:14:05;8.50;;;2.13;;
40731;SDS011;26420;52.256;9.096;2022-10-16T03:19:12;3.88;;;1.92;;
40731;SDS011;26420;52.256;9.096;2022-10-16T03:24:23;4.65;;;1.88;;
40731;SDS011;26420;52.256;9.096;2022-10-16T03:29:34;8.27;;;2.30;;
40731;SDS011;26420;52.256;9.096;2022-10-16T03:34:43;6.57;;;1.73;;
40731;SDS011;26420;52.256;9.096;2022-10-16T03:39:45;5.80;;;1.88;;
40731;SDS011;26420;52.256;9.096;2022-10-16T03:44:47;6.00;;;2.13;;
40731;SDS011;26420;52.256;9.096;2022-10-16T03:49:49;6.13;;;2.10;;
40731;SDS011;26420;52.256;9.096;2022-10-16T03:54:51;5.65;;;2.20;;
40731;SDS011;26420;52.256;9.096;2022-10-16T03:59:54;3.13;;;1.92;;
40731;SDS011;26420;52.256;9.096;2022-10-16T04:04:56;5.22;;;2.05;;
40731;SDS011;26420;52.256;9.096;2022-10-16T04:09:58;3.83;;;2.17;;
40731;SDS011;26420;52.256;9.096;2022-10-16T04:15:00;3.47;;;1.85;;
40731;SDS011;26420;52.256;9.096;2022-10-16T04:20:02;4.07;;;1.90;;
40731;SDS011;26420;52.256;9.096;2022-10-16T04:25:05;4.35;;;2.08;;
40731;SDS011;26420;52.256;9.096;2022-10-16T04:30:07;2.80;;;2.03;;
40731;SDS011;26420;52.256;9.096;2022-10-16T04:35:09;4.53;;;2.05;;
40731;SDS011;26420;52.256;9.096;2022-10-16T04:40:12;4.03;;;1.95;;
40731;SDS011;26420;52.256;9.096;2022-10-16T04:45:14;3.33;;;1.80;;
40731;SDS011;26420;52.256;9.096;2022-10-16T04:50:17;2.28;;;1.75;;
40731;SDS011;26420;52.256;9.096;2022-10-16T04:55:35;7.85;;;2.08;;
40731;SDS011;26420;52.256;9.096;2022-10-16T05:00:38;5.68;;;1.83;;
40731;SDS011;26420;52.256;9.096;2022-10-16T05:05:44;4.55;;;2.13;;
40731;SDS011;26420;52.256;9.096;2022-10-16T05:10:46;4.07;;;1.77;;
40731;SDS011;26420;52.256;9.096;2022-10-16T05:15:48;4.15;;;1.70;;
40731;SDS011;26420;52.256;9.096;2022-10-16T05:20:50;4.45;;;1.83;;
40731;SDS011;26420;52.256;9.096;2022-10-16T05:25:53;4.07;;;2.17;;
40731;SDS011;26420;52.256;9.096;2022-10-16T05:30:56;3.40;;;1.50;;
40731;SDS011;26420;52.256;9.096;2022-10-16T05:36:02;2.03;;;1.67;;
40731;SDS011;26420;52.256;9.096;2022-10-16T05:41:05;3.25;;;1.50;;
40731;SDS011;26420;52.256;9.096;2022-10-16T05:46:07;2.25;;;1.55;;
40731;SDS011;26420;52.256;9.096;2022-10-16T05:51:10;2.42;;;1.60;;
40731;SDS011;26420;52.256;9.096;2022-10-16T05:56:12;2.83;;;1.25;;
40731;SDS011;26420;52.256;9.096;2022-10-16T06:01:16;2.25;;;1.40;;
40731;SDS011;26420;52.256;9.096;2022-10-16T06:06:19;2.05;;;1.50;;
40731;SDS011;26420;52.256;9.096;2022-10-16T06:11:23;2.17;;;1.58;;
40731;SDS011;26420;52.256;9.096;2022-10-16T06:16:25;5.28;;;1.75;;
40731;SDS011;26420;52.256;9.096;2022-10-16T06:21:28;2.97;;;1.45;;
40731;SDS011;26420;52.256;9.096;2022-10-16T06:26:30;1.85;;;1.20;;
40731;SDS011;26420;52.256;9.096;2022-10-16T06:31:33;1.50;;;1.10;;
40731;SDS011;26420;52.256;9.096;2022-10-16T06:36:35;1.52;;;1.10;;
40731;SDS011;26420;52.256;9.096;2022-10-16T06:41:38;4.97;;;1.10;;
40731;SDS011;26420;52.256;9.096;2022-10-16T06:46:49;1.58;;;1.10;;
40731;SDS011;26420;52.256;9.096;2022-10-16T06:51:52;2.40;;;1.00;;
40731;SDS011;26420;52.256;9.096;2022-10-16T06:56:54;2.55;;;1.10;;
40731;SDS011;26420;52.256;9.096;2022-10-16T07:01:56;2.10;;;1.00;;
40731;SDS011;26420;52.256;9.096;2022-10-16T07:07:00;2.38;;;1.13;;
40731;SDS011;26420;52.256;9.096;2022-10-16T07:12:07;1.85;;;0.85;;
40731;SDS011;26420;52.256;9.096;2022-10-16T07:17:09;1.92;;;0.82;;
40731;SDS011;26420;52.256;9.096;2022-10-16T07:22:11;2.20;;;0.80;;
40731;SDS011;26420;52.256;9.096;2022-10-16T07:27:13;1.05;;;0.88;;
40731;SDS011;26420;52.256;9.096;2022-10-16T07:32:17;1.10;;;1.00;;
40731;SDS011;26420;52.256;9.096;2022-10-16T07:37:19;0.80;;;0.73;;
40731;SDS011;26420;52.256;9.096;2022-10-16T07:42:21;2.28;;;0.70;;
40731;SDS011;26420;52.256;9.096;2022-10-16T07:47:24;3.95;;;0.80;;
40731;SDS011;26420;52.256;9.096;2022-10-16T07:52:26;3.38;;;0.80;;
40731;SDS011;26420;52.256;9.096;2022-10-16T07:57:28;1.08;;;0.80;;
40731;SDS011;26420;52.256;9.096;2022-10-16T08:02:31;0.80;;;0.80;;
40731;SDS011;26420;52.256;9.096;2022-10-16T08:07:33;1.85;;;0.70;;
40731;SDS011;26420;52.256;9.096;2022-10-16T08:12:35;0.75;;;0.70;;
40731;SDS011;26420;52.256;9.096;2022-10-16T08:17:37;0.73;;;0.60;;
40731;SDS011;26420;52.256;9.096;2022-10-16T08:22:39;0.93;;;0.90;;
40731;SDS011;26420;52.256;9.096;2022-10-16T08:27:42;2.33;;;0.80;;
40731;SDS011;26420;52.256;9.096;2022-10-16T08:32:45;0.88;;;0.80;;
40731;SDS011;26420;52.256;9.096;2022-10-16T08:37:47;3.00;;;0.93;;
40731;SDS011;26420;52.256;9.096;2022-10-16T08:48:27;1.23;;;0.90;;
40731;SDS011;26420;52.256;9.096;2022-10-16T08:53:33;3.53;;;0.88;;
40731;SDS011;26420;52.256;9.096;2022-10-16T08:58:38;1.17;;;0.85;;
40731;SDS011;26420;52.256;9.096;2022-10-16T09:03:56;2.03;;;0.88;;
40731;SDS011;26420;52.256;9.096;2022-10-16T09:19:31;3.42;;;0.80;;
40731;SDS011;26420;52.256;9.096;2022-10-16T09:24:35;3.90;;;0.98;;
40731;SDS011;26420;52.256;9.096;2022-10-16T09:29:38;1.95;;;0.80;;
40731;SDS011;26420;52.256;9.096;2022-10-16T09:34:43;2.95;;;0.80;;
40731;SDS011;26420;52.256;9.096;2022-10-16T09:39:48;4.20;;;1.08;;
40731;SDS011;26420;52.256;9.096;2022-10-16T09:44:51;1.27;;;0.70;;
40731;SDS011;26420;52.256;9.096;2022-10-16T09:50:03;4.32;;;0.90;;
40731;SDS011;26420;52.256;9.096;2022-10-16T09:55:14;0.60;;;0.60;;
40731;SDS011;26420;52.256;9.096;2022-10-16T10:00:16;2.15;;;0.85;;
40731;SDS011;26420;52.256;9.096;2022-10-16T10:05:23;1.48;;;0.73;;
40731;SDS011;26420;52.256;9.096;2022-10-16T10:15:32;2.53;;;0.70;;
40731;SDS011;26420;52.256;9.096;2022-10-16T10:20:36;2.22;;;0.80;;
40731;SDS011;26420;52.256;9.096;2022-10-16T10:31:03;2.35;;;0.63;;
40731;SDS011;26420;52.256;9.096;2022-10-16T10:36:12;0.77;;;0.60;;
40731;SDS011;26420;52.256;9.096;2022-10-16T10:46:56;1.33;;;0.45;;
40731;SDS011;26420;52.256;9.096;2022-10-16T10:57:09;2.30;;;0.50;;
40731;SDS011;26420;52.256;9.096;2022-10-16T11:08:08;0.80;;;0.40;;
40731;SDS011;26420;52.256;9.096;2022-10-16T11:18:32;2.22;;;0.50;;
40731;SDS011;26420;52.256;9.096;2022-10-16T11:23:41;1.13;;;0.40;;
40731;SDS011;26420;52.256;9.096;2022-10-16T11:28:45;2.53;;;0.63;;
40731;SDS011;26420;52.256;9.096;2022-10-16T11:33:51;1.67;;;0.50;;
40731;SDS011;26420;52.256;9.096;2022-10-16T11:49:25;3.17;;;0.43;;
40731;SDS011;26420;52.256;9.096;2022-10-16T11:54:32;2.08;;;0.70;;
40731;SDS011;26420;52.256;9.096;2022-10-16T11:59:46;0.73;;;0.50;;
40731;SDS011;26420;52.256;9.096;2022-10-16T12:04:59;2.78;;;0.55;;
40731;SDS011;26420;52.256;9.096;2022-10-16T12:10:16;3.40;;;0.60;;
40731;SDS011;26420;52.256;9.096;2022-10-16T12:15:28;0.80;;;0.40;;
40731;SDS011;26420;52.256;9.096;2022-10-16T12:20:55;3.78;;;0.65;;
40731;SDS011;26420;52.256;9.096;2022-10-16T12:26:05;1.30;;;0.40;;
40731;SDS011;26420;52.256;9.096;2022-10-16T12:31:08;1.17;;;0.38;;
40731;SDS011;26420;52.256;9.096;2022-10-16T12:36:14;1.05;;;0.45;;
40731;SDS011;26420;52.256;9.096;2022-10-16T12:41:27;3.30;;;0.60;;
40731;SDS011;26420;52.256;9.096;2022-10-16T12:51:45;1.20;;;0.57;;
40731;SDS011;26420;52.256;9.096;2022-10-16T12:57:18;2.03;;;0.70;;
40731;SDS011;26420;52.256;9.096;2022-10-16T13:14:14;2.92;;;0.60;;
40731;SDS011;26420;52.256;9.096;2022-10-16T13:24:41;0.98;;;0.65;;
40731;SDS011;26420;52.256;9.096;2022-10-16T13:29:48;8.18;;;0.82;;
40731;SDS011;26420;52.256;9.096;2022-10-16T13:34:56;1.70;;;0.68;;
40731;SDS011;26420;52.256;9.096;2022-10-16T13:40:06;1.83;;;0.55;;
40731;SDS011;26420;52.256;9.096;2022-10-16T13:45:22;3.20;;;0.77;;
40731;SDS011;26420;52.256;9.096;2022-10-16T13:50:26;0.50;;;0.50;;
40731;SDS011;26420;52.256;9.096;2022-10-16T13:55:28;2.40;;;0.63;;
40731;SDS011;26420;52.256;9.096;2022-10-16T14:00:30;3.78;;;0.77;;
40731;SDS011;26420;52.256;9.096;2022-10-16T14:05:33;3.28;;;0.80;;
40731;SDS011;26420;52.256;9.096;2022-10-16T14:10:36;1.77;;;0.70;;
40731;SDS011;26420;52.256;9.096;2022-10-16T14:15:38;1.38;;;0.60;;
40731;SDS011;26420;52.256;9.096;2022-10-16T14:20:40;3.30;;;0.80;;
40731;SDS011;26420;52.256;9.096;2022-10-16T14:25:43;2.10;;;0.70;;
40731;SDS011;26420;52.256;9.096;2022-10-16T14:30:55;2.00;;;0.90;;
40731;SDS011;26420;52.256;9.096;2022-10-16T14:36:04;0.60;;;0.52;;
40731;SDS011;26420;52.256;9.096;2022-10-16T14:41:07;1.13;;;0.50;;
40731;SDS011;26420;52.256;9.096;2022-10-16T14:51:16;1.73;;;0.70;;
40731;SDS011;26420;52.256;9.096;2022-10-16T14:56:19;3.22;;;0.73;;
40731;SDS011;26420;52.256;9.096;2022-10-16T15:01:22;0.98;;;0.75;;
40731;SDS011;26420;52.256;9.096;2022-10-16T15:06:24;1.27;;;0.82;;
40731;SDS011;26420;52.256;9.096;2022-10-16T15:11:26;1.33;;;0.90;;
40731;SDS011;26420;52.256;9.096;2022-10-16T15:16:28;1.95;;;0.75;;
40731;SDS011;26420;52.256;9.096;2022-10-16T15:21:31;0.80;;;0.80;;
40731;SDS011;26420;52.256;9.096;2022-10-16T15:26:33;2.85;;;1.00;;
40731;SDS011;26420;52.256;9.096;2022-10-16T15:31:36;3.88;;;1.08;;
40731;SDS011;26420;52.256;9.096;2022-10-16T15:36:38;1.67;;;0.82;;
40731;SDS011;26420;52.256;9.096;2022-10-16T15:41:41;2.72;;;0.98;;
40731;SDS011;26420;52.256;9.096;2022-10-16T15:46:43;1.20;;;1.10;;
40731;SDS011;26420;52.256;9.096;2022-10-16T15:51:45;1.83;;;1.10;;
40731;SDS011;26420;52.256;9.096;2022-10-16T15:56:47;3.47;;;1.20;;
40731;SDS011;26420;52.256;9.096;2022-10-16T16:01:50;5.88;;;0.93;;
40731;SDS011;26420;52.256;9.096;2022-10-16T16:06:52;4.18;;;1.20;;
40731;SDS011;26420;52.256;9.096;2022-10-16T16:11:54;1.30;;;0.90;;
40731;SDS011;26420;52.256;9.096;2022-10-16T16:16:57;1.10;;;1.00;;
40731;SDS011;26420;52.256;9.096;2022-10-16T16:21:59;3.25;;;1.20;;
40731;SDS011;26420;52.256;9.096;2022-10-16T16:27:02;3.25;;;1.20;;
40731;SDS011;26420;52.256;9.096;2022-10-16T16:32:04;2.42;;;1.55;;
40731;SDS011;26420;52.256;9.096;2022-10-16T16:37:06;1.95;;;1.25;;
40731;SDS011;26420;52.256;9.096;2022-10-16T16:42:09;1.98;;;1.50;;
40731;SDS011;26420;52.256;9.096;2022-10-16T16:47:11;1.70;;;1.00;;
40731;SDS011;26420;52.256;9.096;2022-10-16T16:52:13;2.60;;;1.10;;
40731;SDS011;26420;52.256;9.096;2022-10-16T16:57:17;2.20;;;1.20;;
40731;SDS011;26420;52.256;9.096;2022-10-16T17:02:19;5.18;;;1.25;;
40731;SDS011;26420;52.256;9.096;2022-10-16T17:07:22;4.28;;;1.20;;
40731;SDS011;26420;52.256;9.096;2022-10-16T17:12:28;1.50;;;1.20;;
40731;SDS011;26420;52.256;9.096;2022-10-16T17:17:31;3.92;;;2.05;;
40731;SDS011;26420;52.256;9.096;2022-10-16T17:22:33;7.07;;;4.40;;
40731;SDS011;26420;52.256;9.096;2022-10-16T17:27:35;4.15;;;2.85;;
40731;SDS011;26420;52.256;9.096;2022-10-16T17:32:37;3.15;;;1.55;;
40731;SDS011;26420;52.256;9.096;2022-10-16T17:37:39;3.65;;;2.15;;
40731;SDS011;26420;52.256;9.096;2022-10-16T17:42:42;3.10;;;1.50;;
40731;SDS011;26420;52.256;9.096;2022-10-16T17:47:44;5.18;;;2.05;;
40731;SDS011;26420;52.256;9.096;2022-10-16T17:52:46;2.47;;;1.38;;
40731;SDS011;26420;52.256;9.096;2022-10-16T17:57:48;2.08;;;1.10;;
40731;SDS011;26420;52.256;9.096;2022-10-16T18:02:53;0.80;;;0.80;;
40731;SDS011;26420;52.256;9.096;2022-10-16T18:07:55;5.18;;;2.25;;
40731;SDS011;26420;52.256;9.096;2022-10-16T18:12:58;6.53;;;2.13;;
40731;SDS011;26420;52.256;9.096;2022-10-16T18:18:00;2.40;;;1.85;;
40731;SDS011;26420;52.256;9.096;2022-10-16T18:23:03;6.78;;;4.18;;
40731;SDS011;26420;52.256;9.096;2022-10-16T18:28:05;8.35;;;3.45;;
40731;SDS011;26420;52.256;9.096;2022-10-16T18:33:07;7.35;;;3.70;;
40731;SDS011;26420;52.256;9.096;2022-10-16T18:38:09;8.55;;;4.00;;
40731;SDS011;26420;52.256;9.096;2022-10-16T18:43:11;10.88;;;5.18;;
40731;SDS011;26420;52.256;9.096;2022-10-16T18:48:14;9.38;;;5.03;;
40731;SDS011;26420;52.256;9.096;2022-10-16T18:53:16;8.35;;;4.82;;
40731;SDS011;26420;52.256;9.096;2022-10-16T18:58:18;8.20;;;3.45;;
40731;SDS011;26420;52.256;9.096;2022-10-16T19:03:20;5.15;;;2.70;;
40731;SDS011;26420;52.256;9.096;2022-10-16T19:08:23;4.85;;;2.53;;
40731;SDS011;26420;52.256;9.096;2022-10-16T19:13:25;3.67;;;2.58;;
40731;SDS011;26420;52.256;9.096;2022-10-16T19:18:27;6.57;;;2.60;;
40731;SDS011;26420;52.256;9.096;2022-10-16T19:23:31;7.20;;;2.97;;
40731;SDS011;26420;52.256;9.096;2022-10-16T19:28:33;8.05;;;2.63;;
40731;SDS011;26420;52.256;9.096;2022-10-16T19:33:37;4.88;;;3.53;;
40731;SDS011;26420;52.256;9.096;2022-10-16T19:38:39;8.27;;;3.88;;
40731;SDS011;26420;52.256;9.096;2022-10-16T19:43:42;11.20;;;6.18;;
40731;SDS011;26420;52.256;9.096;2022-10-16T19:48:44;8.13;;;4.93;;
40731;SDS011;26420;52.256;9.096;2022-10-16T19:53:51;8.45;;;5.43;;
40731;SDS011;26420;52.256;9.096;2022-10-16T19:58:54;3.78;;;2.35;;
40731;SDS011;26420;52.256;9.096;2022-10-16T20:03:57;5.40;;;2.00;;
40731;SDS011;26420;52.256;9.096;2022-10-16T20:08:59;4.18;;;1.70;;
40731;SDS011;26420;52.256;9.096;2022-10-16T20:14:02;1.60;;;1.20;;
40731;SDS011;26420;52.256;9.096;2022-10-16T20:19:04;5.45;;;0.70;;
40731;SDS011;26420;52.256;9.096;2022-10-16T20:24:06;3.08;;;0.77;;
40731;SDS011;26420;52.256;9.096;2022-10-16T20:29:09;0.88;;;0.80;;
40731;SDS011;26420;52.256;9.096;2022-10-16T20:34:11;5.20;;;1.10;;
40731;SDS011;26420;52.256;9.096;2022-10-16T20:39:13;4.68;;;2.10;;
40731;SDS011;26420;52.256;9.096;2022-10-16T20:44:16;6.40;;;2.30;;
40731;SDS011;26420;52.256;9.096;2022-10-16T20:49:18;1.73;;;1.40;;
40731;SDS011;26420;52.256;9.096;2022-10-16T20:54:39;4.22;;;1.60;;
40731;SDS011;26420;52.256;9.096;2022-10-16T20:59:41;2.63;;;0.90;;
40731;SDS011;26420;52.256;9.096;2022-10-16T21:04:45;1.27;;;0.70;;
40731;SDS011;26420;52.256;9.096;2022-10-16T21:09:47;0.90;;;0.63;;
40731;SDS011;26420;52.256;9.096;2022-10-16T21:14:49;0.77;;;0.60;;
40731;SDS011;26420;52.256;9.096;2022-10-16T21:20:12;2.38;;;0.60;;
40731;SDS011;26420;52.256;9.096;2022-10-16T21:25:14;2.42;;;1.13;;
40731;SDS011;26420;52.256;9.096;2022-10-16T21:30:16;5.22;;;0.95;;
40731;SDS011;26420;52.256;9.096;2022-10-16T21:35:18;1.05;;;0.90;;
40731;SDS011;26420;52.256;9.096;2022-10-16T21:40:20;1.15;;;0.90;;
40731;SDS011;26420;52.256;9.096;2022-10-16T21:45:23;1.55;;;0.90;;
40731;SDS011;26420;52.256;9.096;2022-10-16T21:50:25;0.70;;;0.70;;
40731;SDS011;26420;52.256;9.096;2022-10-16T21:55:27;1.00;;;0.70;;
40731;SDS011;26420;52.256;9.096;2022-10-16T22:00:29;2.40;;;0.80;;
40731;SDS011;26420;52.256;9.096;2022-10-16T22:05:34;2.00;;;0.63;;
40731;SDS011;26420;52.256;9.096;2022-10-16T22:10:37;0.85;;;0.77;;
40731;SDS011;26420;52.256;9.096;2022-10-16T22:15:46;0.85;;;0.82;;
40731;SDS011;26420;52.256;9.096;2022-10-16T22:20:48;1.15;;;1.00;;
40731;SDS011;26420;52.256;9.096;2022-10-16T22:25:50;2.05;;;0.70;;
40731;SDS011;26420;52.256;9.096;2022-10-16T22:30:52;2.03;;;1.80;;
40731;SDS011;26420;52.256;9.096;2022-10-16T22:35:55;1.52;;;0.80;;
40731;SDS011;26420;52.256;9.096;2022-10-16T22:41:03;2.67;;;0.93;;
40731;SDS011;26420;52.256;9.096;2022-10-16T22:46:06;2.20;;;0.95;;
40731;SDS011;26420;52.256;9.096;2022-10-16T22:51:09;1.00;;;0.95;;
40731;SDS011;26420;52.256;9.096;2022-10-16T22:56:18;1.67;;;1.02;;
40731;SDS011;26420;52.256;9.096;2022-10-16T23:06:25;4.10;;;1.00;;
40731;SDS011;26420;52.256;9.096;2022-10-16T23:11:28;1.70;;;1.00;;
40731;SDS011;26420;52.256;9.096;2022-10-16T23:16:30;1.40;;;0.90;;
40731;SDS011;26420;52.256;9.096;2022-10-16T23:21:33;1.90;;;1.10;;
40731;SDS011;26420;52.256;9.096;2022-10-16T23:26:35;1.85;;;1.10;;
40731;SDS011;26420;52.256;9.096;2022-10-16T23:31:37;1.20;;;1.10;;
40731;SDS011;26420;52.256;9.096;2022-10-16T23:36:39;1.58;;;1.35;;
40731;SDS011;26420;52.256;9.096;2022-10-16T23:41:43;2.10;;;1.38;;
40731;SDS011;26420;52.256;9.096;2022-10-16T23:46:45;2.40;;;1.38;;
40731;SDS011;26420;52.256;9.096;2022-10-16T23:51:47;1.55;;;1.33;;
40731;SDS011;26420;52.256;9.096;2022-10-16T23:56:49;1.85;;;1.30;;
